createdAt,value
2023-06-28T00:00:20.795Z,98673.22
2023-06-28T00:02:47.443Z,98671.25
2023-06-28T00:05:14.415Z,98673.00
2023-06-28T00:07:41.364Z,98676.16
2023-06-28T00:10:08.098Z,98672.81
2023-06-28T00:12:34.759Z,98677.28
2023-06-28T00:15:01.325Z,98686.00
2023-06-28T00:17:30.673Z,98674.41
2023-06-28T00:20:07.067Z,98681.09
2023-06-28T00:22:34.201Z,98676.81
2023-06-28T00:25:02.580Z,98680.34
2023-06-28T00:27:28.988Z,98690.00
2023-06-28T00:29:57.086Z,98683.97
2023-06-28T00:32:27.759Z,98698.56
2023-06-28T00:34:54.376Z,98697.25
2023-06-28T00:37:21.136Z,98696.44
2023-06-28T00:39:47.614Z,98694.38
2023-06-28T00:42:14.152Z,98693.16
2023-06-28T00:44:40.586Z,98695.50
2023-06-28T00:47:07.561Z,98695.03
2023-06-28T00:49:38.053Z,98701.31
2023-06-28T00:52:06.551Z,98691.13
2023-06-28T00:54:33.050Z,98700.31
2023-06-28T00:57:00.665Z,98702.28
2023-06-28T00:59:27.873Z,98703.84
2023-06-28T01:01:54.563Z,98700.22
2023-06-28T01:04:21.159Z,98705.97
2023-06-28T01:06:54.385Z,98703.66
2023-06-28T01:09:25.506Z,98698.34
2023-06-28T01:11:54.138Z,98699.94
2023-06-28T01:14:22.605Z,98700.56
2023-06-28T01:16:55.700Z,98701.75
2023-06-28T01:19:24.688Z,98702.56
2023-06-28T01:22:00.438Z,98705.56
2023-06-28T01:24:27.488Z,98704.63
2023-06-28T01:26:54.921Z,98708.03
2023-06-28T01:29:22.969Z,98706.28
2023-06-28T01:31:54.111Z,98710.59
2023-06-28T01:34:21.012Z,98705.50
2023-06-28T01:36:49.016Z,98704.31
2023-06-28T01:39:18.836Z,98694.38
2023-06-28T01:41:46.647Z,98697.41
2023-06-28T01:44:13.972Z,98704.97
2023-06-28T01:46:41.116Z,98697.63
2023-06-28T01:49:08.686Z,98699.03
2023-06-28T01:51:36.254Z,98696.50
2023-06-28T01:54:03.940Z,98696.88
2023-06-28T01:56:31.074Z,98699.47
2023-06-28T01:58:57.628Z,98704.66
2023-06-28T02:01:24.417Z,98704.47
2023-06-28T02:03:50.969Z,98695.13
2023-06-28T02:06:17.510Z,98693.16
2023-06-28T02:08:43.947Z,98692.69
2023-06-28T02:11:10.384Z,98689.66
2023-06-28T02:13:36.868Z,98694.19
2023-06-28T02:16:03.501Z,98691.56
2023-06-28T02:18:32.488Z,98690.72
2023-06-28T02:20:59.077Z,98688.13
2023-06-28T02:23:25.759Z,98694.38
2023-06-28T02:25:52.360Z,98694.47
2023-06-28T02:28:20.575Z,98689.94
2023-06-28T02:30:47.578Z,98695.75
2023-06-28T02:33:14.161Z,98694.09
2023-06-28T02:35:40.729Z,98690.00
2023-06-28T02:38:07.155Z,98697.25
2023-06-28T02:40:33.689Z,98695.22
2023-06-28T02:43:00.133Z,98701.97
2023-06-28T02:45:26.570Z,98696.84
2023-06-28T02:47:53.064Z,98706.34
2023-06-28T02:50:19.849Z,98706.03
2023-06-28T02:52:46.358Z,98707.16
2023-06-28T02:55:13.744Z,98701.69
2023-06-28T02:57:40.647Z,98713.06
2023-06-28T03:00:08.985Z,98709.69
2023-06-28T03:02:35.717Z,98722.66
2023-06-28T03:05:02.335Z,98727.03
2023-06-28T03:07:28.843Z,98729.84
2023-06-28T03:09:55.368Z,98718.28
2023-06-28T03:12:21.828Z,98726.22
2023-06-28T03:14:48.343Z,98721.06
2023-06-28T03:17:14.788Z,98713.91
2023-06-28T03:19:41.323Z,98717.03
2023-06-28T03:22:07.799Z,98717.72
2023-06-28T03:24:34.357Z,98720.56
2023-06-28T03:27:00.885Z,98722.28
2023-06-28T03:29:27.353Z,98709.91
2023-06-28T03:31:56.194Z,98718.94
2023-06-28T03:34:22.813Z,98722.28
2023-06-28T03:37:02.709Z,98719.00
2023-06-28T03:39:29.793Z,98719.59
2023-06-28T03:41:56.201Z,98720.41
2023-06-28T03:44:22.693Z,98713.53
2023-06-28T03:46:49.134Z,98717.63
2023-06-28T03:49:15.655Z,98720.22
2023-06-28T03:51:42.122Z,98723.09
2023-06-28T03:54:08.550Z,98721.06
2023-06-28T03:56:35.010Z,98718.59
2023-06-28T03:59:01.502Z,98715.19
2023-06-28T04:01:27.913Z,98715.47
2023-06-28T04:03:54.485Z,98718.06
2023-06-28T04:06:21.077Z,98714.84
2023-06-28T04:08:48.126Z,98721.84
2023-06-28T04:11:14.683Z,98725.50
2023-06-28T04:13:41.107Z,98719.44
2023-06-28T04:16:07.569Z,98727.34
2023-06-28T04:18:34.053Z,98727.84
2023-06-28T04:21:03.574Z,98730.16
2023-06-28T04:23:30.076Z,98731.88
2023-06-28T04:26:01.653Z,98725.78
2023-06-28T04:28:33.118Z,98725.31
2023-06-28T04:31:01.244Z,98721.34
2023-06-28T04:33:31.338Z,98725.84
2023-06-28T04:36:09.416Z,98726.91
2023-06-28T04:39:06.495Z,98721.34
2023-06-28T04:41:43.817Z,98730.88
2023-06-28T04:44:13.197Z,98739.78
2023-06-28T04:46:45.744Z,98734.38
2023-06-28T04:49:15.531Z,98734.13
2023-06-28T04:51:52.433Z,98730.56
2023-06-28T04:54:26.684Z,98730.53
2023-06-28T04:57:02.172Z,98726.34
2023-06-28T05:02:23.830Z,98735.91
2023-06-28T05:04:50.576Z,98728.00
2023-06-28T05:07:24.394Z,98735.09
2023-06-28T05:09:58.798Z,98736.16
2023-06-28T05:12:29.290Z,98732.00
2023-06-28T05:14:57.700Z,98734.81
2023-06-28T05:17:24.300Z,98738.34
2023-06-28T05:19:50.829Z,98742.25
2023-06-28T05:22:17.372Z,98744.78
2023-06-28T05:24:43.790Z,98741.50
2023-06-28T05:27:10.276Z,98746.50
2023-06-28T05:29:37.098Z,98751.34
2023-06-28T05:32:04.055Z,98744.09
2023-06-28T05:34:30.676Z,98751.53
2023-06-28T05:36:57.191Z,98745.03
2023-06-28T05:39:23.684Z,98752.75
2023-06-28T05:41:50.115Z,98744.09
2023-06-28T05:44:19.249Z,98748.69
2023-06-28T05:46:45.827Z,98744.97
2023-06-28T05:49:12.671Z,98746.59
2023-06-28T05:51:39.114Z,98752.22
2023-06-28T05:54:05.849Z,98744.41
2023-06-28T05:56:32.795Z,98738.47
2023-06-28T05:58:59.451Z,98744.41
2023-06-28T06:01:26.016Z,98747.78
2023-06-28T06:03:52.676Z,98750.06
2023-06-28T06:06:20.389Z,98753.50
2023-06-28T06:08:46.953Z,98746.34
2023-06-28T06:11:13.610Z,98746.34
2023-06-28T06:13:40.102Z,98742.56
2023-06-28T06:16:06.601Z,98758.06
2023-06-28T06:18:34.942Z,98748.06
2023-06-28T06:21:01.381Z,98746.44
2023-06-28T06:23:27.842Z,98743.41
2023-06-28T06:25:54.309Z,98747.47
2023-06-28T06:28:20.826Z,98750.53
2023-06-28T06:30:47.709Z,98744.66
2023-06-28T06:33:14.635Z,98746.25
2023-06-28T06:35:41.276Z,98732.97
2023-06-28T06:38:07.855Z,98748.78
2023-06-28T06:40:34.940Z,98748.22
2023-06-28T06:43:01.713Z,98748.59
2023-06-28T06:45:28.282Z,98752.53
2023-06-28T06:47:54.822Z,98756.69
2023-06-28T06:50:21.323Z,98759.19
2023-06-28T06:52:47.871Z,98760.69
2023-06-28T06:55:14.677Z,98761.41
2023-06-28T06:57:43.058Z,98761.53
2023-06-28T07:00:23.294Z,98768.22
2023-06-28T07:08:47.005Z,98775.06
2023-06-28T07:11:13.632Z,98760.41
2023-06-28T07:13:40.049Z,98762.88
2023-06-28T07:16:06.498Z,98758.97
2023-06-28T07:18:33.154Z,98759.72
2023-06-28T07:20:59.720Z,98764.13
2023-06-28T07:23:26.173Z,98763.81
2023-06-28T07:25:52.659Z,98762.03
2023-06-28T07:28:19.181Z,98749.16
2023-06-28T07:30:54.814Z,98767.19
2023-06-28T07:33:23.404Z,98753.97
2023-06-28T07:35:50.830Z,98762.16
2023-06-28T07:38:19.476Z,98760.34
2023-06-28T07:40:47.188Z,98760.06
2023-06-28T07:43:15.150Z,98752.38
2023-06-28T07:45:42.152Z,98749.41
2023-06-28T07:48:09.169Z,98753.41
2023-06-28T07:50:36.259Z,98756.25
2023-06-28T07:53:03.487Z,98747.84
2023-06-28T07:55:30.930Z,98739.84
2023-06-28T07:57:58.303Z,98738.31
2023-06-28T08:00:28.213Z,98736.84
2023-06-28T08:02:54.798Z,98732.59
2023-06-28T08:05:21.490Z,98744.94
2023-06-28T08:07:49.622Z,98746.31
2023-06-28T08:10:16.392Z,98743.28
2023-06-28T08:12:42.869Z,98736.59
2023-06-28T08:15:09.900Z,98743.56
2023-06-28T08:17:36.677Z,98748.59
2023-06-28T08:20:03.415Z,98747.94
2023-06-28T08:22:29.981Z,98746.91
2023-06-28T08:24:56.480Z,98748.59
2023-06-28T08:27:22.948Z,98738.19
2023-06-28T08:29:49.359Z,98741.50
2023-06-28T08:32:16.050Z,98741.72
2023-06-28T08:34:42.576Z,98739.00
2023-06-28T08:37:09.746Z,98732.44
2023-06-28T08:39:39.204Z,98729.91
2023-06-28T08:42:06.394Z,98731.94
2023-06-28T08:44:34.201Z,98730.72
2023-06-28T08:47:01.987Z,98739.88
2023-06-28T08:49:29.338Z,98735.53
2023-06-28T08:51:56.612Z,98732.34
2023-06-28T08:54:25.636Z,98733.69
2023-06-28T08:57:05.584Z,98727.66
2023-06-28T08:59:39.338Z,98731.19
2023-06-28T09:02:09.601Z,98724.03
2023-06-28T09:04:37.300Z,98736.03
2023-06-28T09:07:04.810Z,98737.34
2023-06-28T09:09:32.071Z,98732.69
2023-06-28T09:11:59.243Z,98731.59
2023-06-28T09:14:25.716Z,98730.75
2023-06-28T09:16:52.136Z,98732.41
2023-06-28T09:19:18.652Z,98733.41
2023-06-28T09:21:46.763Z,98737.81
2023-06-28T09:24:14.297Z,98734.94
2023-06-28T09:26:44.917Z,98728.50
2023-06-28T09:29:13.266Z,98721.88
2023-06-28T09:31:43.800Z,98732.13
2023-06-28T09:34:10.907Z,98731.50
2023-06-28T09:36:38.406Z,98738.09
2023-06-28T09:39:06.043Z,98735.88
2023-06-28T09:41:38.450Z,98740.44
2023-06-28T09:44:06.212Z,98739.44
2023-06-28T09:46:33.962Z,98740.13
2023-06-28T09:49:00.791Z,98746.28
2023-06-28T09:51:28.006Z,98743.53
2023-06-28T09:53:55.646Z,98747.06
2023-06-28T09:56:34.309Z,98744.41
2023-06-28T09:59:03.457Z,98746.69
2023-06-28T10:01:30.536Z,98749.47
2023-06-28T10:03:59.587Z,98747.00
2023-06-28T10:06:28.605Z,98746.06
2023-06-28T10:08:56.192Z,98753.38
2023-06-28T10:11:23.227Z,98749.31
2023-06-28T10:13:50.266Z,98741.28
2023-06-28T10:16:19.695Z,98749.03
2023-06-28T10:18:46.247Z,98743.72
2023-06-28T10:21:12.987Z,98737.94
2023-06-28T10:23:41.460Z,98749.78
2023-06-28T10:26:09.137Z,98747.69
2023-06-28T10:28:36.437Z,98736.72
2023-06-28T10:31:04.461Z,98734.41
2023-06-28T10:33:34.989Z,98728.78
2023-06-28T10:36:01.812Z,98732.97
2023-06-28T10:38:38.434Z,98729.69
2023-06-28T10:41:06.182Z,98731.22
2023-06-28T10:43:32.772Z,98730.84
2023-06-28T10:45:59.719Z,98727.25
2023-06-28T10:48:28.246Z,98730.56
2023-06-28T10:50:59.319Z,98732.16
2023-06-28T10:53:28.414Z,98727.94
2023-06-28T10:56:13.811Z,98731.03
2023-06-28T10:58:42.574Z,98725.28
2023-06-28T11:01:11.153Z,98728.75
2023-06-28T11:03:43.231Z,98718.53
2023-06-28T11:06:12.034Z,98728.94
2023-06-28T11:08:40.078Z,98723.31
2023-06-28T11:11:08.432Z,98722.13
2023-06-28T11:13:41.093Z,98723.94
2023-06-28T11:16:12.335Z,98717.78
2023-06-28T11:18:39.243Z,98717.59
2023-06-28T11:21:13.292Z,98719.25
2023-06-28T11:23:41.695Z,98717.53
2023-06-28T11:26:13.296Z,98717.00
2023-06-28T11:28:49.802Z,98704.16
2023-06-28T11:31:26.022Z,98706.56
2023-06-28T11:33:57.110Z,98702.97
2023-06-28T11:36:25.776Z,98705.47
2023-06-28T11:38:52.930Z,98702.28
2023-06-28T11:41:19.447Z,98706.22
2023-06-28T11:43:46.758Z,98695.34
2023-06-28T11:46:23.470Z,98691.53
2023-06-28T11:48:51.706Z,98693.94
2023-06-28T11:51:18.631Z,98696.66
2023-06-28T11:53:52.047Z,98703.91
2023-06-28T11:56:18.505Z,98700.91
2023-06-28T11:58:44.930Z,98712.44
2023-06-28T12:01:24.771Z,98702.78
2023-06-28T12:03:51.518Z,98696.03
2023-06-28T12:06:18.165Z,98706.94
2023-06-28T12:08:44.645Z,98695.56
2023-06-28T12:11:16.584Z,98705.25
2023-06-28T12:13:44.482Z,98702.81
2023-06-28T12:16:18.265Z,98699.94
2023-06-28T12:18:59.684Z,98703.97
2023-06-28T12:21:28.785Z,98706.66
2023-06-28T12:24:22.718Z,98713.72
2023-06-28T12:26:50.447Z,98702.91
2023-06-28T12:29:22.932Z,98696.59
2023-06-28T12:31:51.855Z,98687.75
2023-06-28T12:34:26.119Z,98695.78
2023-06-28T12:37:01.536Z,98686.66
2023-06-28T12:39:29.905Z,98688.78
2023-06-28T12:42:05.702Z,98678.25
2023-06-28T12:44:49.186Z,98681.09
2023-06-28T12:47:15.903Z,98686.13
2023-06-28T12:49:42.483Z,98678.78
2023-06-28T12:52:08.980Z,98674.53
2023-06-28T12:54:35.403Z,98673.97
2023-06-28T12:57:04.289Z,98674.19
2023-06-28T12:59:32.401Z,98669.53
2023-06-28T13:01:59.087Z,98674.63
2023-06-28T13:04:28.073Z,98657.22
2023-06-28T13:06:54.630Z,98662.97
2023-06-28T13:09:21.565Z,98672.03
2023-06-28T13:11:48.136Z,98672.09
2023-06-28T13:14:16.534Z,98668.63
2023-06-28T13:16:44.051Z,98667.59
2023-06-28T13:19:10.957Z,98666.97
2023-06-28T13:21:37.446Z,98659.06
2023-06-28T13:24:04.531Z,98660.13
2023-06-28T13:26:31.608Z,98653.81
2023-06-28T13:28:58.046Z,98650.72
2023-06-28T13:31:24.699Z,98656.88
2023-06-28T13:33:51.159Z,98661.25
2023-06-28T13:36:22.467Z,98655.16
2023-06-28T13:38:49.436Z,98653.50
2023-06-28T13:41:15.974Z,98657.63
2023-06-28T13:43:42.414Z,98650.88
2023-06-28T13:46:08.988Z,98648.88
2023-06-28T13:48:35.439Z,98650.13
2023-06-28T13:51:02.133Z,98641.91
2023-06-28T13:53:28.731Z,98643.22
2023-06-28T13:55:55.337Z,98637.81
2023-06-28T13:58:21.817Z,98635.47
2023-06-28T14:00:49.094Z,98641.25
2023-06-28T14:03:15.708Z,98645.63
2023-06-28T14:05:42.366Z,98639.94
2023-06-28T14:08:09.033Z,98640.94
2023-06-28T14:10:35.540Z,98648.13
2023-06-28T14:13:02.024Z,98636.28
2023-06-28T14:15:28.431Z,98639.53
2023-06-28T14:17:55.003Z,98632.19
2023-06-28T14:20:21.482Z,98635.00
2023-06-28T14:22:51.763Z,98633.09
2023-06-28T14:25:18.616Z,98630.56
2023-06-28T14:27:45.074Z,98623.09
2023-06-28T14:30:12.640Z,98619.22
2023-06-28T14:32:40.877Z,98616.31
2023-06-28T14:35:07.968Z,98617.63
2023-06-28T14:37:34.441Z,98620.78
2023-06-28T14:40:00.914Z,98623.50
2023-06-28T14:42:27.404Z,98617.94
2023-06-28T14:44:54.003Z,98618.41
2023-06-28T14:47:20.496Z,98619.00
2023-06-28T14:49:47.096Z,98610.69
2023-06-28T14:52:13.641Z,98615.03
2023-06-28T14:54:40.126Z,98609.91
2023-06-28T14:57:06.981Z,98607.19
2023-06-28T14:59:33.470Z,98610.84
2023-06-28T15:01:59.984Z,98605.00
2023-06-28T15:04:29.035Z,98611.47
2023-06-28T15:06:56.008Z,98613.25
2023-06-28T15:09:22.718Z,98607.66
2023-06-28T15:11:49.272Z,98607.34
2023-06-28T15:14:16.050Z,98612.78
2023-06-28T15:16:42.722Z,98612.75
2023-06-28T15:19:09.473Z,98612.06
2023-06-28T15:21:35.960Z,98606.88
2023-06-28T15:24:04.231Z,98605.56
2023-06-28T15:26:31.256Z,98597.63
2023-06-28T15:28:59.606Z,98601.66
2023-06-28T15:31:26.329Z,98600.50
2023-06-28T15:33:53.141Z,98603.16
2023-06-28T15:36:19.792Z,98603.13
2023-06-28T15:38:46.469Z,98598.97
2023-06-28T15:41:12.940Z,98600.25
2023-06-28T15:43:40.656Z,98595.81
2023-06-28T15:46:12.384Z,98598.28
2023-06-28T15:48:38.929Z,98590.56
2023-06-28T15:51:05.414Z,98595.47
2023-06-28T15:53:31.834Z,98593.50
2023-06-28T15:55:58.498Z,98591.81
2023-06-28T15:58:28.425Z,98588.94
2023-06-28T16:00:57.549Z,98594.50
2023-06-28T16:03:24.342Z,98588.84
2023-06-28T16:05:50.879Z,98586.69
2023-06-28T16:08:17.288Z,98583.47
2023-06-28T16:10:43.904Z,98585.78
2023-06-28T16:13:14.815Z,98586.06
2023-06-28T16:15:41.402Z,98586.06
2023-06-28T16:18:07.973Z,98584.53
2023-06-28T16:20:34.481Z,98589.66
2023-06-28T16:23:01.081Z,98587.78
2023-06-28T16:25:27.523Z,98582.91
2023-06-28T16:27:53.998Z,98588.44
2023-06-28T16:30:20.487Z,98586.06
2023-06-28T16:32:46.959Z,98579.78
2023-06-28T16:35:13.597Z,98588.41
2023-06-28T16:37:40.838Z,98585.00
2023-06-28T16:40:07.912Z,98585.63
2023-06-28T16:42:34.361Z,98583.22
2023-06-28T16:45:00.860Z,98579.06
2023-06-28T16:47:27.453Z,98587.28
2023-06-28T16:49:54.055Z,98581.69
2023-06-28T16:52:20.515Z,98587.72
2023-06-28T16:54:47.121Z,98590.56
2023-06-28T16:57:13.573Z,98586.88
2023-06-28T16:59:40.009Z,98588.66
2023-06-28T17:02:06.773Z,98589.44
2023-06-28T17:04:33.201Z,98588.25
2023-06-28T17:06:59.692Z,98590.38
2023-06-28T17:09:27.490Z,98591.66
2023-06-28T17:11:53.989Z,98592.00
2023-06-28T17:14:20.465Z,98589.97
2023-06-28T17:16:46.996Z,98592.31
2023-06-28T17:19:13.483Z,98587.97
2023-06-28T17:21:39.892Z,98590.25
2023-06-28T17:24:07.597Z,98593.47
2023-06-28T17:26:34.405Z,98601.19
2023-06-28T17:29:00.896Z,98593.63
2023-06-28T17:31:27.810Z,98589.19
2023-06-28T17:33:54.647Z,98588.44
2023-06-28T17:36:22.209Z,98590.88
2023-06-28T17:38:48.674Z,98592.97
2023-06-28T17:41:15.435Z,98590.56
2023-06-28T17:43:42.560Z,98589.25
2023-06-28T17:46:09.312Z,98597.75
2023-06-28T17:48:35.841Z,98593.78
2023-06-28T17:51:02.473Z,98593.34
2023-06-28T17:53:28.868Z,98601.72
2023-06-28T17:55:56.261Z,98594.63
2023-06-28T17:58:22.743Z,98591.97
2023-06-28T18:00:49.167Z,98606.97
2023-06-28T18:03:15.614Z,98604.28
2023-06-28T18:05:42.137Z,98607.22
2023-06-28T18:08:08.994Z,98608.78
2023-06-28T18:10:35.569Z,98604.03
2023-06-28T18:13:02.537Z,98604.28
2023-06-28T18:15:29.442Z,98605.69
2023-06-28T18:17:55.945Z,98605.19
2023-06-28T18:20:22.486Z,98611.59
2023-06-28T18:22:49.026Z,98617.13
2023-06-28T18:25:15.585Z,98615.63
2023-06-28T18:27:42.444Z,98610.41
2023-06-28T18:30:09.697Z,98618.78
2023-06-28T18:32:36.334Z,98618.13
2023-06-28T18:35:03.573Z,98616.91
2023-06-28T18:37:39.104Z,98614.28
2023-06-28T18:40:06.757Z,98620.69
2023-06-28T18:42:33.448Z,98622.00
2023-06-28T18:45:00.033Z,98610.25
2023-06-28T18:47:26.574Z,98616.47
2023-06-28T18:49:53.115Z,98614.75
2023-06-28T18:52:19.978Z,98616.00
2023-06-28T18:54:46.554Z,98615.41
2023-06-28T18:57:13.297Z,98612.88
2023-06-28T18:59:39.793Z,98611.97
2023-06-28T19:02:06.608Z,98608.53
2023-06-28T19:04:33.092Z,98606.03
2023-06-28T19:07:00.339Z,98605.84
2023-06-28T19:09:26.823Z,98610.03
2023-06-28T19:11:53.327Z,98602.00
2023-06-28T19:14:19.882Z,98605.56
2023-06-28T19:16:46.430Z,98608.75
2023-06-28T19:19:13.020Z,98606.78
2023-06-28T19:21:39.501Z,98607.66
2023-06-28T19:24:06.494Z,98617.38
2023-06-28T19:26:33.007Z,98609.25
2023-06-28T19:28:59.525Z,98600.34
2023-06-28T19:31:26.432Z,98614.59
2023-06-28T19:33:52.991Z,98616.28
2023-06-28T19:36:19.535Z,98612.13
2023-06-28T19:38:46.047Z,98613.44
2023-06-28T19:41:12.480Z,98618.44
2023-06-28T19:43:39.141Z,98612.56
2023-06-28T19:46:05.683Z,98615.16
2023-06-28T19:48:32.645Z,98618.13
2023-06-28T19:51:01.866Z,98614.66
2023-06-28T19:53:29.747Z,98615.72
2023-06-28T19:55:56.301Z,98622.22
2023-06-28T19:58:22.881Z,98623.91
2023-06-28T20:00:49.390Z,98625.53
2023-06-28T20:03:15.969Z,98636.75
2023-06-28T20:05:42.626Z,98632.16
2023-06-28T20:08:09.411Z,98638.38
2023-06-28T20:10:36.077Z,98635.63
2023-06-28T20:13:02.615Z,98627.88
2023-06-28T20:15:29.092Z,98636.66
2023-06-28T20:17:55.653Z,98645.13
2023-06-28T20:20:22.334Z,98641.59
2023-06-28T20:22:48.869Z,98637.50
2023-06-28T20:25:15.415Z,98641.91
2023-06-28T20:27:42.793Z,98642.56
2023-06-28T20:30:10.709Z,98639.59
2023-06-28T20:32:38.527Z,98637.91
2023-06-28T20:35:06.900Z,98642.81
2023-06-28T20:37:33.381Z,98646.50
2023-06-28T20:40:01.813Z,98641.75
2023-06-28T20:42:29.709Z,98637.78
2023-06-28T20:44:56.685Z,98639.56
2023-06-28T20:47:26.143Z,98650.28
2023-06-28T20:49:53.060Z,98653.94
2023-06-28T20:52:20.693Z,98652.41
2023-06-28T20:54:47.241Z,98652.00
2023-06-28T20:57:13.781Z,98651.25
2023-06-28T20:59:40.239Z,98651.47
2023-06-28T21:02:10.832Z,98652.50
2023-06-28T21:04:37.475Z,98655.47
2023-06-28T21:07:04.135Z,98650.66
2023-06-28T21:09:30.630Z,98651.41
2023-06-28T21:11:57.129Z,98652.25
2023-06-28T21:14:23.593Z,98647.88
2023-06-28T21:16:50.079Z,98642.66
2023-06-28T21:19:16.534Z,98647.41
2023-06-28T21:21:43.888Z,98644.53
2023-06-28T21:24:10.798Z,98645.28
2023-06-28T21:26:37.370Z,98651.50
2023-06-28T21:29:03.876Z,98658.72
2023-06-28T21:31:31.024Z,98650.31
2023-06-28T21:33:57.628Z,98646.94
2023-06-28T21:36:27.512Z,98649.09
2023-06-28T21:38:54.010Z,98649.34
2023-06-28T21:41:20.863Z,98652.06
2023-06-28T21:43:47.462Z,98645.66
2023-06-28T21:46:14.151Z,98649.75
2023-06-28T21:48:40.617Z,98650.44
2023-06-28T21:51:07.205Z,98653.84
2023-06-28T21:53:33.820Z,98650.72
2023-06-28T21:56:00.407Z,98646.09
2023-06-28T21:58:28.723Z,98652.50
2023-06-28T22:00:57.886Z,98656.56
2023-06-28T22:03:25.556Z,98652.44
2023-06-28T22:05:52.109Z,98648.19
2023-06-28T22:08:18.703Z,98645.84
2023-06-28T22:10:45.126Z,98647.84
2023-06-28T22:13:12.259Z,98646.41
2023-06-28T22:15:40.897Z,98653.47
2023-06-28T22:18:12.046Z,98644.22
2023-06-28T22:20:40.481Z,98644.94
2023-06-28T22:23:07.910Z,98647.28
2023-06-28T22:25:40.274Z,98648.75
2023-06-28T22:28:07.241Z,98637.34
2023-06-28T22:30:33.761Z,98645.09
2023-06-28T22:33:00.320Z,98643.00
2023-06-28T22:35:27.635Z,98641.84
2023-06-28T22:37:58.088Z,98639.53
2023-06-28T22:40:24.722Z,98643.59
2023-06-28T22:42:51.214Z,98643.78
2023-06-28T22:45:17.810Z,98637.28
2023-06-28T22:47:44.672Z,98635.38
2023-06-28T22:50:11.473Z,98640.38
2023-06-28T22:52:42.500Z,98647.03
2023-06-28T22:55:10.688Z,98643.66
2023-06-28T22:57:38.543Z,98650.06
2023-06-28T23:00:07.923Z,98651.78
2023-06-28T23:02:34.463Z,98645.31
2023-06-28T23:05:00.940Z,98639.44
2023-06-28T23:07:29.616Z,98635.78
2023-06-28T23:09:56.320Z,98635.66
2023-06-28T23:12:22.999Z,98636.31
2023-06-28T23:14:53.074Z,98630.59
2023-06-28T23:17:20.129Z,98630.66
2023-06-28T23:19:46.657Z,98634.34
2023-06-28T23:22:13.156Z,98632.50
2023-06-28T23:24:40.853Z,98627.81
2023-06-28T23:27:07.392Z,98622.97
2023-06-28T23:29:35.258Z,98626.34
2023-06-28T23:32:02.009Z,98624.09
2023-06-28T23:34:30.142Z,98632.41
2023-06-28T23:36:58.320Z,98624.13
2023-06-28T23:39:25.139Z,98627.13
2023-06-28T23:41:51.604Z,98620.09
2023-06-28T23:44:18.121Z,98623.56
2023-06-28T23:46:45.946Z,98622.50
2023-06-28T23:49:14.283Z,98626.53
2023-06-28T23:51:41.372Z,98630.34
2023-06-28T23:54:08.737Z,98623.56
2023-06-28T23:56:35.372Z,98620.16
2023-06-28T23:59:01.890Z,98617.22
